Oruro, Juan Mendoza Airport (SLOR)

NameJuan Mendoza Airport
CityOruro
CountryBolivia
ICAOSLOR
IATAORU
Altitude3702 m
CoordinatesGoogle Map
Live Air TrafficLiveATC.net
METARSLOR 251500Z 32005KT 9999 SCT017 BKN070 16/04 Q1035
2019-03-25 15:00:00 Wind: Northwest (320°) 2.57 m/s - Visibility: > 10000 m - Temperature: 16 °C - Dew point: 4 °C - Humidity: 45% - Pressure: 1035 hPa
Statistics

The table below shows the detailed information of all flights to/from Oruro, Juan Mendoza Airport (SLOR).